»·PEaware :: SWA21 KBOI-KSFO

SWA21 :: KBOI-KSFO

FLIGHT INFORMATION

Flight Status: Arrived
Operator:
Southwest Airlines
More flights by this operator :: More flights under this callsign
Pilot: Ben F. (13029)
Aircraft: BOEING 737-200
(B732)
More flights by this aircraft type
Origin: KBOI Boise Air Terminal/Gowen
United States
Destination: KSFO San Francisco Intl
United States
More flights between these airports :: More routes between these airports
Route: +BOI3 REO FMG MOD8
File this flight plan on PilotEdge
Remarks: PBN / A1B2 DOF / 180819 REG / N275SB EET / KZSE0029 KZOA0033 OPR / SWA RMK / TCAS SIMBRIEF
Altitude:
(Current/Filed)
30,000ft
Speed:
(Current/Filed)
445kts
Departed: 18-Aug-18 06:55 PM
Arrived: 18-Aug-18 08:17 PM
Distance/Time
Traveled:
454nm/1:22
Distance/Time
To Go:
Arrived

Flight Plot

Page will automatically refresh every two minutes.

Flight plan parsing failed; only flown route is shown


Map Options




Map Legend


Flown Route
Filed Route
Departure Airport
Arrival Airport
Navaid (VOR, NDB)
Fix

Horizontal Profiles

Position Reports

Time Latitude Longitude Heading Altitude Ground
Speed
18-Aug-18 18:36 43.567206 -116.220576 26 2852ft 0kts
18-Aug-18 18:37 43.567206 -116.220576 26 2852ft 0kts
18-Aug-18 18:38 43.567206 -116.220576 26 2852ft 0kts
18-Aug-18 18:39 43.567206 -116.220576 26 2852ft 0kts
18-Aug-18 18:40 43.567206 -116.220576 26 2852ft 0kts
18-Aug-18 18:41 43.567206 -116.220576 26 2852ft 0kts
18-Aug-18 18:42 43.567206 -116.220576 26 2852ft 0kts
18-Aug-18 18:43 43.567206 -116.220576 26 2852ft 0kts
18-Aug-18 18:44 43.567206 -116.220576 26 2852ft 0kts
18-Aug-18 18:45 43.567206 -116.220576 26 2852ft 0kts
18-Aug-18 18:46 43.567206 -116.220576 26 2852ft 0kts
18-Aug-18 18:47 43.566782 -116.220837 356 2853ft 2kts
18-Aug-18 18:48 43.566554 -116.220579 293 2853ft 0kts
18-Aug-18 18:49 43.566554 -116.220579 293 2853ft 0kts
18-Aug-18 18:50 43.566599 -116.221180 242 2853ft 6kts
18-Aug-18 18:51 43.565416 -116.219318 115 2855ft 7kts
18-Aug-18 18:52 43.564241 -116.215855 115 2858ft 13kts
18-Aug-18 18:53 43.562314 -116.210212 115 2864ft 21kts
18-Aug-18 18:54 43.559962 -116.203320 115 2873ft 16kts
18-Aug-18 18:55 43.558725 -116.203132 274 2871ft 11kts
18-Aug-18 18:56 43.561099 -116.210190 295 2863ft 105kts
18-Aug-18 18:57 43.580483 -116.275563 291 4882ft 224kts
18-Aug-18 18:58 43.606878 -116.354332 296 8626ft 243kts
18-Aug-18 18:59 43.625792 -116.458333 270 11483ft 299kts
18-Aug-18 19:00 43.611972 -116.571941 232 14858ft 321kts
18-Aug-18 19:01 43.534095 -116.650800 217 16126ft 388kts
18-Aug-18 19:02 43.461058 -116.742747 227 19332ft 340kts
18-Aug-18 19:03 43.391470 -116.834886 228 21005ft 351kts
18-Aug-18 19:04 43.320596 -116.927960 228 22652ft 356kts
18-Aug-18 19:05 43.248783 -117.021950 228 24206ft 359kts
18-Aug-18 19:06 43.176340 -117.116567 228 25593ft 361kts
18-Aug-18 19:07 43.103151 -117.211812 228 26730ft 366kts
18-Aug-18 19:08 43.028751 -117.308301 229 27757ft 371kts
18-Aug-18 19:09 42.953610 -117.405385 229 28699ft 375kts
18-Aug-18 19:10 42.877301 -117.503092 229 29534ft 379kts
18-Aug-18 19:11 42.799755 -117.601722 229 30058ft 388kts
18-Aug-18 19:12 42.719269 -117.704622 228 30072ft 409kts
18-Aug-18 19:13 42.634384 -117.812557 228 30070ft 426kts
18-Aug-18 19:14 42.518215 -117.868235 202 30063ft 460kts
18-Aug-18 19:15 42.404027 -117.940399 213 30054ft 460kts
18-Aug-18 19:16 42.305474 -118.045575 218 30067ft 462kts
18-Aug-18 19:17 42.191253 -118.127593 211 30064ft 469kts
18-Aug-18 19:18 42.072933 -118.200402 210 30064ft 469kts
18-Aug-18 19:19 41.953929 -118.271696 209 30064ft 469kts
18-Aug-18 19:20 41.834525 -118.341762 209 30059ft 469kts
18-Aug-18 19:21 41.715641 -118.411674 209 30062ft 468kts
18-Aug-18 19:22 41.597001 -118.481640 209 30075ft 467kts
18-Aug-18 19:23 41.478464 -118.551329 209 30077ft 467kts
18-Aug-18 19:24 41.359856 -118.620733 209 30078ft 466kts
18-Aug-18 19:25 41.242796 -118.688582 209 30087ft 467kts
18-Aug-18 19:26 41.123813 -118.757602 209 30086ft 468kts
18-Aug-18 19:27 41.004438 -118.826791 208 30057ft 469kts
18-Aug-18 19:28 40.886241 -118.894828 207 30037ft 470kts
18-Aug-18 19:29 40.766329 -118.962854 207 30036ft 468kts
18-Aug-18 19:30 40.647388 -119.030808 207 30036ft 466kts
18-Aug-18 19:31 40.528797 -119.098390 207 30035ft 465kts
18-Aug-18 19:32 40.410558 -119.165503 207 30035ft 464kts
18-Aug-18 19:33 40.292632 -119.232182 207 30035ft 463kts
18-Aug-18 19:34 40.174747 -119.298584 207 30038ft 462kts
18-Aug-18 19:35 40.057177 -119.364553 207 30102ft 460kts
18-Aug-18 19:36 39.940239 -119.429926 207 30127ft 459kts
18-Aug-18 19:37 39.822945 -119.494760 207 30123ft 459kts
18-Aug-18 19:38 39.705497 -119.559765 207 30092ft 460kts
18-Aug-18 19:39 39.588124 -119.624553 207 30081ft 460kts
18-Aug-18 19:40 39.469670 -119.683688 200 30083ft 463kts
18-Aug-18 19:41 39.346807 -119.733904 201 30081ft 463kts
18-Aug-18 19:42 39.224727 -119.784948 201 30118ft 463kts
18-Aug-18 19:43 39.103199 -119.835621 201 30155ft 463kts
18-Aug-18 19:44 38.980813 -119.886440 200 30184ft 462kts
18-Aug-18 19:45 38.859369 -119.936484 199 30204ft 461kts
18-Aug-18 19:46 38.737959 -119.986225 199 30228ft 459kts
18-Aug-18 19:47 38.616494 -120.036110 199 30237ft 459kts
18-Aug-18 19:48 38.495297 -120.085747 199 30208ft 459kts
18-Aug-18 19:49 38.373909 -120.135292 199 30076ft 461kts
18-Aug-18 19:50 38.252034 -120.184856 199 30012ft 461kts
18-Aug-18 19:51 38.130173 -120.234244 199 29940ft 461kts
18-Aug-18 19:52 38.012746 -120.281643 199 29924ft 428kts
18-Aug-18 19:53 37.903206 -120.325737 200 29923ft 403kts
18-Aug-18 19:54 37.799124 -120.367031 200 29877ft 386kts
18-Aug-18 19:55 37.723827 -120.450299 233 29865ft 367kts
18-Aug-18 19:56 37.676871 -120.562241 259 29142ft 368kts
18-Aug-18 19:57 37.660981 -120.688168 259 26877ft 360kts
18-Aug-18 19:58 37.645600 -120.810363 259 23350ft 350kts
18-Aug-18 19:59 37.630895 -120.928888 259 20046ft 338kts
18-Aug-18 20:00 37.617658 -121.042163 260 18721ft 334kts
18-Aug-18 20:01 37.604931 -121.157096 260 17423ft 328kts
18-Aug-18 20:02 37.592242 -121.270036 260 16047ft 321kts
18-Aug-18 20:03 37.579744 -121.380059 261 14316ft 315kts
18-Aug-18 20:04 37.567371 -121.487974 261 12672ft 308kts
18-Aug-18 20:05 37.550902 -121.591271 253 10500ft 296kts
18-Aug-18 20:06 37.532518 -121.688844 254 8935ft 268kts
18-Aug-18 20:07 37.514194 -121.771448 253 8524ft 232kts
18-Aug-18 20:08 37.497196 -121.844702 252 7891ft 211kts
18-Aug-18 20:09 37.481920 -121.910568 253 7906ft 186kts
18-Aug-18 20:10 37.470129 -121.971048 255 7907ft 171kts
18-Aug-18 20:11 37.475593 -122.029440 296 7946ft 194kts
18-Aug-18 20:12 37.502818 -122.094421 296 7892ft 212kts
18-Aug-18 20:13 37.531403 -122.162082 297 5150ft 220kts
18-Aug-18 20:14 37.558246 -122.225662 297 2690ft 189kts
18-Aug-18 20:15 37.581254 -122.280368 297 1197ft 157kts
18-Aug-18 20:16 37.599496 -122.323669 298 645ft 139kts
18-Aug-18 20:17 37.617116 -122.365734 297 13ft 121kts
18-Aug-18 20:18 37.623432 -122.381341 264 28ft 15kts
18-Aug-18 20:19 37.620781 -122.382899 121 32ft 10kts
18-Aug-18 20:20 37.618631 -122.379896 164 32ft 14kts
18-Aug-18 20:21 37.614688 -122.380920 207 32ft 17kts
18-Aug-18 20:22 37.613667 -122.384210 254 32ft 6kts
18-Aug-18 20:23 37.613612 -122.384458 258 32ft 0kts
18-Aug-18 20:24 37.613612 -122.384458 258 32ft 0kts
18-Aug-18 20:25 37.613612 -122.384458 258 32ft 0kts

Navigation Log

Ident Type
Flight plan parsing failed, navigation log unavailable